createdAt,value
2022-08-28T00:01:32.829Z,12.70
2022-08-28T00:03:06.714Z,15.83
2022-08-28T00:04:39.131Z,14.67
2022-08-28T00:06:12.494Z,13.53
2022-08-28T00:07:47.924Z,13.73
2022-08-28T00:09:20.492Z,17.13
2022-08-28T00:10:53.367Z,11.70
2022-08-28T00:12:26.466Z,12.80
2022-08-28T00:13:58.874Z,11.63
2022-08-28T00:15:38.024Z,13.03
2022-08-28T00:17:10.307Z,12.32
2022-08-28T00:18:42.595Z,21.07
2022-08-28T00:20:18.944Z,12.55
2022-08-28T00:21:52.974Z,11.18
2022-08-28T00:23:42.428Z,13.27
2022-08-28T00:25:20.025Z,15.03
2022-08-28T00:27:11.242Z,11.95
2022-08-28T00:28:43.499Z,8.33
2022-08-28T00:30:15.956Z,11.83
2022-08-28T00:31:48.408Z,9.48
2022-08-28T00:33:27.310Z,10.52
2022-08-28T00:35:01.700Z,9.73
2022-08-28T00:36:34.260Z,8.27
2022-08-28T00:38:09.034Z,12.32
2022-08-28T00:39:42.244Z,12.05
2022-08-28T00:41:15.108Z,10.63
2022-08-28T00:42:48.183Z,8.95
2022-08-28T00:44:24.900Z,9.23
2022-08-28T00:45:57.355Z,8.63
2022-08-28T00:47:30.223Z,12.00
2022-08-28T00:49:02.405Z,8.10
2022-08-28T00:50:56.870Z,7.15
2022-08-28T00:52:33.980Z,10.02
2022-08-28T00:54:08.271Z,9.75
2022-08-28T00:55:41.542Z,8.68
2022-08-28T00:57:20.273Z,8.20
2022-08-28T00:58:57.546Z,9.88
2022-08-28T01:00:37.024Z,10.27
2022-08-28T01:02:09.567Z,10.73
2022-08-28T01:03:43.991Z,10.90
2022-08-28T01:05:17.401Z,10.40
2022-08-28T01:06:54.160Z,9.02
2022-08-28T01:08:31.259Z,8.65
2022-08-28T01:10:09.622Z,13.45
2022-08-28T01:11:44.601Z,7.80
2022-08-28T01:13:18.463Z,10.43
2022-08-28T01:14:59.995Z,11.00
2022-08-28T01:16:34.224Z,9.75
2022-08-28T01:18:13.708Z,14.43
2022-08-28T01:19:57.077Z,9.80
2022-08-28T01:21:39.990Z,10.73
2022-08-28T01:23:24.488Z,10.43
2022-08-28T01:25:01.763Z,10.47
2022-08-28T01:26:34.290Z,15.20
2022-08-28T01:28:12.681Z,12.82
2022-08-28T01:29:47.846Z,10.88
2022-08-28T01:31:21.709Z,10.63
2022-08-28T01:32:56.778Z,15.63
2022-08-28T01:34:29.178Z,12.70
2022-08-28T01:36:01.985Z,10.70
2022-08-28T01:37:34.229Z,14.18
2022-08-28T01:39:17.590Z,12.00
2022-08-28T01:40:54.629Z,10.33
2022-08-28T01:42:27.295Z,11.85
2022-08-28T01:43:59.983Z,9.73
2022-08-28T01:45:32.244Z,12.83
2022-08-28T01:47:04.506Z,13.00
2022-08-28T01:48:42.612Z,13.30
2022-08-28T01:50:19.457Z,15.17
2022-08-28T01:51:52.425Z,13.17
2022-08-28T01:53:32.589Z,12.87
2022-08-28T01:55:07.944Z,15.00
2022-08-28T01:56:43.868Z,17.30
2022-08-28T01:58:17.171Z,14.87
2022-08-28T01:59:50.825Z,15.67
2022-08-28T02:01:23.427Z,12.80
2022-08-28T02:02:59.008Z,19.37
2022-08-28T02:04:32.230Z,15.80
2022-08-28T02:06:05.464Z,18.30
2022-08-28T02:07:38.722Z,14.20
2022-08-28T02:09:14.544Z,15.17
2022-08-28T02:10:49.086Z,15.20
2022-08-28T02:12:21.335Z,12.87
2022-08-28T02:13:54.666Z,13.37
2022-08-28T02:15:31.564Z,14.00
2022-08-28T02:17:03.945Z,15.17
2022-08-28T02:18:38.485Z,16.07
2022-08-28T02:20:11.259Z,13.73
2022-08-28T02:21:43.576Z,16.13
2022-08-28T02:23:17.235Z,14.23
2022-08-28T02:24:49.416Z,13.63
2022-08-28T02:26:23.479Z,14.70
2022-08-28T02:27:57.035Z,11.03
2022-08-28T02:29:29.347Z,14.00
2022-08-28T02:31:01.718Z,14.03
2022-08-28T02:32:34.511Z,13.27
2022-08-28T02:34:07.565Z,14.00
2022-08-28T02:35:42.524Z,12.90
2022-08-28T02:37:15.370Z,14.23
2022-08-28T02:38:47.795Z,11.00
2022-08-28T02:40:23.367Z,14.63
2022-08-28T02:41:55.919Z,15.30
2022-08-28T02:43:28.172Z,15.33
2022-08-28T02:45:01.251Z,13.70
2022-08-28T02:46:34.120Z,12.30
2022-08-28T02:48:15.582Z,16.60
2022-08-28T02:49:49.932Z,19.83
2022-08-28T02:51:23.096Z,16.63
2022-08-28T02:52:56.157Z,14.70
2022-08-28T02:54:28.475Z,17.87
2022-08-28T02:56:02.989Z,13.97
2022-08-28T02:57:35.918Z,15.30
2022-08-28T02:59:08.345Z,18.43
2022-08-28T03:00:42.079Z,13.63
2022-08-28T03:02:14.491Z,16.60
2022-08-28T03:03:46.931Z,16.63
2022-08-28T03:05:24.595Z,19.27
2022-08-28T03:06:57.921Z,16.73
2022-08-28T03:08:32.284Z,15.50
2022-08-28T03:10:07.286Z,18.10
2022-08-28T03:11:41.242Z,16.77
2022-08-28T03:13:13.848Z,16.30
2022-08-28T03:14:59.095Z,19.20
2022-08-28T03:16:32.643Z,13.93
2022-08-28T03:18:08.159Z,16.37
2022-08-28T03:19:43.856Z,26.33
2022-08-28T03:21:16.026Z,23.60
2022-08-28T03:23:06.672Z,15.53
2022-08-28T03:24:39.219Z,19.80
2022-08-28T03:26:16.492Z,16.83
2022-08-28T03:27:50.151Z,18.00
2022-08-28T03:29:23.061Z,16.33
2022-08-28T03:30:55.551Z,12.30
2022-08-28T03:32:29.219Z,13.10
2022-08-28T03:34:02.267Z,15.60
2022-08-28T03:35:34.671Z,15.17
2022-08-28T03:37:06.818Z,55.90
2022-08-28T03:38:41.995Z,25.60
2022-08-28T03:40:15.088Z,14.93
2022-08-28T03:41:48.772Z,14.00
2022-08-28T03:43:24.950Z,16.00
2022-08-28T03:44:58.055Z,15.33
2022-08-28T03:46:33.479Z,13.07
2022-08-28T03:48:07.223Z,14.53
2022-08-28T03:49:39.871Z,12.30
2022-08-28T03:51:22.427Z,11.27
2022-08-28T03:53:01.630Z,16.77
2022-08-28T03:54:34.155Z,10.83
2022-08-28T03:56:10.003Z,11.97
2022-08-28T03:57:42.312Z,13.70
2022-08-28T03:59:14.512Z,13.43
2022-08-28T04:00:47.534Z,16.40
2022-08-28T04:02:20.543Z,16.60
2022-08-28T04:03:53.157Z,13.77
2022-08-28T04:05:25.291Z,15.37
2022-08-28T04:06:57.764Z,17.30
2022-08-28T04:08:30.231Z,13.73
2022-08-28T04:10:03.896Z,12.53
2022-08-28T04:11:44.026Z,18.77
2022-08-28T04:13:19.743Z,13.60
2022-08-28T04:14:51.967Z,16.10
2022-08-28T04:16:24.557Z,18.37
2022-08-28T04:17:56.764Z,14.93
2022-08-28T04:19:30.267Z,16.07
2022-08-28T04:21:07.982Z,16.83
2022-08-28T04:22:40.751Z,17.83
2022-08-28T04:24:13.719Z,17.97
2022-08-28T04:25:47.990Z,13.63
2022-08-28T04:27:20.403Z,18.43
2022-08-28T04:28:55.270Z,15.57
2022-08-28T04:30:28.896Z,16.33
2022-08-28T04:32:02.717Z,17.25
2022-08-28T04:33:37.014Z,21.13
2022-08-28T04:35:12.203Z,16.88
2022-08-28T04:36:45.045Z,26.08
2022-08-28T04:38:17.726Z,18.17
2022-08-28T04:39:49.911Z,20.77
2022-08-28T04:41:22.936Z,19.30
2022-08-28T04:42:55.099Z,21.80
2022-08-28T04:44:27.848Z,14.55
2022-08-28T04:46:09.289Z,14.18
2022-08-28T04:47:41.669Z,16.77
2022-08-28T04:49:15.607Z,15.50
2022-08-28T04:50:49.634Z,15.50
2022-08-28T04:52:22.881Z,14.98
2022-08-28T04:53:55.826Z,15.00
2022-08-28T04:55:54.759Z,15.50
2022-08-28T04:57:20.841Z,16.48
2022-08-28T04:58:53.355Z,15.98
2022-08-28T05:00:25.639Z,20.05
2022-08-28T05:01:58.222Z,15.35
2022-08-28T05:03:31.045Z,13.07
2022-08-28T05:05:04.325Z,17.45
2022-08-28T05:06:36.975Z,18.15
2022-08-28T05:08:09.512Z,16.45
2022-08-28T05:09:42.006Z,18.25
2022-08-28T05:11:32.701Z,16.35
2022-08-28T05:13:08.460Z,14.57
2022-08-28T05:14:40.650Z,11.70
2022-08-28T05:16:13.587Z,14.48
2022-08-28T05:17:48.173Z,16.50
2022-08-28T05:19:21.980Z,16.92
2022-08-28T05:20:54.275Z,14.05
2022-08-28T05:22:29.002Z,15.50
2022-08-28T05:24:01.427Z,15.50
2022-08-28T05:25:41.074Z,15.60
2022-08-28T05:27:13.616Z,17.60
2022-08-28T05:28:47.812Z,16.60
2022-08-28T05:30:21.071Z,15.82
2022-08-28T05:31:53.849Z,18.38
2022-08-28T05:33:26.123Z,21.77
2022-08-28T05:34:58.714Z,18.48
2022-08-28T05:36:36.400Z,15.38
2022-08-28T05:38:09.809Z,18.63
2022-08-28T05:39:42.065Z,18.42
2022-08-28T05:41:24.443Z,16.50
2022-08-28T05:42:57.150Z,16.98
2022-08-28T05:44:29.537Z,21.50
2022-08-28T05:46:07.585Z,17.10
2022-08-28T05:47:40.368Z,19.02
2022-08-28T05:49:13.514Z,21.08
2022-08-28T05:50:47.420Z,17.08
2022-08-28T05:52:20.578Z,19.45
2022-08-28T05:53:54.029Z,22.15
2022-08-28T05:55:26.226Z,20.27
2022-08-28T05:56:58.614Z,16.98
2022-08-28T05:58:31.883Z,16.42
2022-08-28T06:00:06.877Z,14.63
2022-08-28T06:01:47.303Z,13.25
2022-08-28T06:03:20.367Z,15.07
2022-08-28T06:04:53.679Z,15.10
2022-08-28T06:06:30.909Z,18.75
2022-08-28T06:08:03.583Z,15.73
2022-08-28T06:09:36.190Z,14.88
2022-08-28T06:11:09.260Z,13.88
2022-08-28T06:12:42.035Z,14.82
2022-08-28T06:14:19.655Z,16.75
2022-08-28T06:15:52.666Z,13.70
2022-08-28T06:17:25.033Z,18.17
2022-08-28T06:18:57.690Z,12.65
2022-08-28T06:20:29.863Z,16.50
2022-08-28T06:22:07.296Z,16.10
2022-08-28T06:23:41.131Z,16.40
2022-08-28T06:25:14.287Z,16.63
2022-08-28T06:26:46.580Z,13.38
2022-08-28T06:28:23.156Z,12.93
2022-08-28T06:29:55.399Z,12.77
2022-08-28T06:31:32.630Z,13.43
2022-08-28T06:33:07.554Z,17.80
2022-08-28T06:34:40.055Z,13.55
2022-08-28T06:36:12.939Z,15.68
2022-08-28T06:37:45.915Z,14.18
2022-08-28T06:39:18.118Z,12.70
2022-08-28T06:40:57.039Z,16.83
2022-08-28T06:42:31.225Z,12.45
2022-08-28T06:44:03.691Z,13.70
2022-08-28T06:45:41.182Z,15.32
2022-08-28T06:47:14.807Z,15.10
2022-08-28T06:48:47.047Z,14.10
2022-08-28T06:50:19.516Z,15.13
2022-08-28T06:51:51.780Z,15.75
2022-08-28T06:53:30.590Z,15.63
2022-08-28T06:55:02.910Z,17.88
2022-08-28T06:56:36.516Z,19.17
2022-08-28T06:58:11.503Z,18.23
2022-08-28T06:59:43.812Z,14.32
2022-08-28T07:01:37.412Z,15.95
2022-08-28T07:03:10.264Z,15.10
2022-08-28T07:04:42.408Z,16.92
2022-08-28T07:06:15.807Z,14.77
2022-08-28T07:07:48.045Z,15.50
2022-08-28T07:09:20.536Z,17.90
2022-08-28T07:10:53.852Z,13.93
2022-08-28T07:12:26.084Z,18.00
2022-08-28T07:14:00.284Z,15.60
2022-08-28T07:15:32.878Z,15.18
2022-08-28T07:17:07.280Z,17.60
2022-08-28T07:18:40.888Z,13.77
2022-08-28T07:20:13.840Z,16.48
2022-08-28T07:21:47.984Z,14.43
2022-08-28T07:24:54.999Z,16.75
2022-08-28T07:26:27.965Z,12.18
2022-08-28T07:28:01.591Z,16.25
2022-08-28T07:29:33.983Z,15.18
2022-08-28T07:31:14.960Z,15.82
2022-08-28T07:32:50.354Z,14.10
2022-08-28T07:34:26.837Z,15.43
2022-08-28T07:36:01.705Z,13.43
2022-08-28T07:37:33.876Z,17.35
2022-08-28T07:39:10.859Z,15.23
2022-08-28T07:40:43.406Z,15.25
2022-08-28T07:42:35.859Z,14.73
2022-08-28T07:44:30.338Z,13.73
2022-08-28T07:46:07.602Z,16.02
2022-08-28T07:47:39.968Z,16.77
2022-08-28T07:49:15.572Z,13.85
2022-08-28T07:50:47.836Z,15.38
2022-08-28T07:52:20.211Z,14.18
2022-08-28T07:53:53.539Z,14.25
2022-08-28T07:55:27.880Z,13.65
2022-08-28T07:57:02.222Z,13.45
2022-08-28T07:58:34.888Z,18.42
2022-08-28T08:00:08.376Z,17.83
2022-08-28T08:01:44.648Z,15.35
2022-08-28T08:03:17.385Z,15.63
2022-08-28T08:04:50.258Z,16.15
2022-08-28T08:06:22.792Z,17.00
2022-08-28T08:08:00.316Z,17.83
2022-08-28T08:09:39.415Z,18.10
2022-08-28T08:11:17.771Z,15.65
2022-08-28T08:12:50.535Z,15.88
2022-08-28T08:14:26.188Z,16.15
2022-08-28T08:16:26.273Z,14.98
2022-08-28T08:17:59.075Z,14.60
2022-08-28T08:19:31.604Z,15.00
2022-08-28T08:21:11.874Z,16.05
2022-08-28T08:22:44.394Z,20.27
2022-08-28T08:24:20.899Z,18.95
2022-08-28T08:26:05.055Z,16.02
2022-08-28T08:27:42.387Z,18.40
2022-08-28T08:29:16.679Z,17.75
2022-08-28T08:30:50.353Z,18.70
2022-08-28T08:32:23.798Z,20.55
2022-08-28T08:34:03.565Z,13.30
2022-08-28T08:35:36.512Z,11.80
2022-08-28T08:37:09.588Z,14.82
2022-08-28T08:38:42.335Z,15.30
2022-08-28T08:40:19.162Z,14.32
2022-08-28T08:41:58.253Z,13.02
2022-08-28T08:43:51.411Z,13.55
2022-08-28T08:45:26.607Z,14.63
2022-08-28T08:47:22.601Z,13.60
2022-08-28T08:48:58.441Z,14.60
2022-08-28T08:50:35.607Z,13.23
2022-08-28T08:52:23.146Z,11.93
2022-08-28T08:54:08.672Z,16.42
2022-08-28T08:55:50.927Z,20.73
2022-08-28T08:57:24.243Z,14.90
2022-08-28T08:58:58.902Z,13.40
2022-08-28T09:00:39.527Z,12.23
2022-08-28T09:02:23.234Z,14.10
2022-08-28T09:04:49.553Z,11.85
2022-08-28T09:06:45.726Z,14.38
2022-08-28T09:08:45.717Z,14.68
2022-08-28T09:10:18.214Z,18.13
2022-08-28T09:12:00.372Z,14.13
2022-08-28T09:14:06.648Z,16.20
2022-08-28T09:15:48.807Z,15.18
2022-08-28T09:17:34.291Z,15.05
2022-08-28T09:19:12.055Z,15.88
2022-08-28T09:20:50.805Z,14.65
2022-08-28T09:22:23.352Z,13.40
2022-08-28T09:24:00.433Z,13.70
2022-08-28T09:25:45.075Z,16.50
2022-08-28T09:27:30.021Z,15.48
2022-08-28T09:29:19.069Z,14.88
2022-08-28T09:31:15.803Z,11.57
2022-08-28T09:33:01.336Z,14.27
2022-08-28T09:34:38.814Z,15.15
2022-08-28T09:36:38.841Z,13.55
2022-08-28T09:38:21.738Z,14.60
2022-08-28T09:40:19.195Z,12.57
2022-08-28T09:42:20.081Z,13.63
2022-08-28T09:43:53.123Z,13.35
2022-08-28T09:45:29.279Z,13.00
2022-08-28T09:47:01.536Z,12.20
2022-08-28T09:48:43.387Z,13.93
2022-08-28T09:50:39.340Z,14.48
2022-08-28T09:52:25.104Z,11.73
2022-08-28T09:54:09.214Z,13.40
2022-08-28T09:56:07.635Z,13.20
2022-08-28T09:57:46.455Z,9.98
2022-08-28T09:59:23.624Z,11.05
2022-08-28T10:01:10.690Z,15.23
2022-08-28T10:03:07.658Z,12.15
2022-08-28T10:05:10.835Z,14.68
2022-08-28T10:07:09.062Z,11.73
2022-08-28T10:09:29.868Z,15.55
2022-08-28T10:11:33.529Z,12.93
2022-08-28T10:13:46.772Z,16.15
2022-08-28T10:16:18.227Z,14.30
2022-08-28T10:18:15.357Z,14.65
2022-08-28T10:20:10.119Z,23.52
2022-08-28T10:21:55.082Z,11.07
2022-08-28T10:24:13.923Z,11.93
2022-08-28T10:26:33.296Z,11.82
2022-08-28T10:28:34.598Z,14.05
2022-08-28T10:30:22.107Z,14.15
2022-08-28T10:32:35.244Z,11.13
2022-08-28T10:34:38.375Z,13.05
2022-08-28T10:36:34.013Z,12.68
2022-08-28T10:38:12.897Z,10.18
2022-08-28T10:40:04.554Z,15.10
2022-08-28T10:41:46.595Z,16.60
2022-08-28T10:43:30.702Z,17.20
2022-08-28T10:45:22.471Z,11.93
2022-08-28T10:46:58.204Z,13.55
2022-08-28T10:48:54.276Z,13.02
2022-08-28T10:50:47.660Z,16.98
2022-08-28T10:52:31.135Z,9.50
2022-08-28T10:54:19.299Z,11.38
2022-08-28T10:56:02.844Z,11.95
2022-08-28T10:58:00.125Z,9.68
2022-08-28T10:59:42.212Z,12.35
2022-08-28T11:01:29.588Z,16.33
2022-08-28T11:03:27.012Z,12.10
2022-08-28T11:05:05.200Z,9.75
2022-08-28T11:06:43.108Z,14.90
2022-08-28T11:08:36.441Z,13.00
2022-08-28T11:10:32.560Z,12.85
2022-08-28T11:12:15.816Z,10.02
2022-08-28T11:14:01.618Z,10.77
2022-08-28T11:15:37.034Z,9.57
2022-08-28T11:17:25.205Z,13.98
2022-08-28T11:19:28.926Z,12.45
2022-08-28T11:21:33.296Z,13.65
2022-08-28T11:23:23.539Z,14.02
2022-08-28T11:25:26.509Z,12.00
2022-08-28T11:27:37.891Z,12.05
2022-08-28T11:29:10.387Z,13.02
2022-08-28T11:30:47.026Z,11.02
2022-08-28T11:32:34.332Z,12.55
2022-08-28T11:34:07.276Z,14.95
2022-08-28T11:35:50.332Z,10.57
2022-08-28T11:37:40.494Z,14.10
2022-08-28T11:39:15.655Z,9.85
2022-08-28T11:40:47.715Z,10.43
2022-08-28T11:42:36.519Z,14.73
2022-08-28T11:44:12.543Z,12.82
2022-08-28T11:45:50.595Z,8.93
2022-08-28T11:47:52.935Z,10.80
2022-08-28T11:49:34.540Z,14.02
2022-08-28T11:51:45.670Z,12.00
2022-08-28T11:53:27.963Z,20.73
2022-08-28T11:55:29.842Z,11.45
2022-08-28T11:57:42.655Z,11.07
2022-08-28T11:59:58.395Z,11.45
2022-08-28T12:01:36.455Z,10.43
2022-08-28T12:03:16.049Z,13.88
2022-08-28T12:04:48.669Z,12.73
2022-08-28T12:06:47.122Z,11.18
2022-08-28T12:08:44.695Z,11.60
2022-08-28T12:10:22.859Z,11.05
2022-08-28T12:12:29.028Z,10.48
2022-08-28T12:14:01.612Z,12.88
2022-08-28T12:15:34.076Z,9.13
2022-08-28T12:17:31.228Z,9.65
2022-08-28T12:19:04.776Z,11.95
2022-08-28T12:20:52.141Z,9.98
2022-08-28T12:23:00.036Z,8.48
2022-08-28T12:24:36.805Z,13.13
2022-08-28T12:26:36.014Z,10.00
2022-08-28T12:28:37.507Z,9.20
2022-08-28T12:30:10.293Z,10.32
2022-08-28T12:32:07.626Z,14.52
2022-08-28T12:34:12.622Z,11.52
2022-08-28T12:35:45.193Z,8.80
2022-08-28T12:37:52.699Z,9.75
2022-08-28T12:39:27.158Z,10.15
2022-08-28T12:41:00.024Z,11.10
2022-08-28T12:42:38.195Z,10.63
2022-08-28T12:44:12.296Z,10.90
2022-08-28T12:46:32.452Z,17.50
2022-08-28T12:48:24.011Z,11.95
2022-08-28T12:49:56.251Z,14.10
2022-08-28T12:51:35.703Z,9.18
2022-08-28T12:53:16.864Z,9.82
2022-08-28T12:54:51.963Z,8.68
2022-08-28T12:56:30.083Z,12.52
2022-08-28T12:58:02.392Z,11.13
2022-08-28T12:59:46.695Z,13.18
2022-08-28T13:01:21.850Z,13.52
2022-08-28T13:02:56.925Z,12.18
2022-08-28T13:04:56.213Z,15.73
2022-08-28T13:06:37.611Z,11.35
2022-08-28T13:08:12.960Z,14.40
2022-08-28T13:09:51.092Z,14.30
2022-08-28T13:11:23.858Z,11.10
2022-08-28T13:13:18.630Z,12.65
2022-08-28T13:14:52.407Z,10.65
2022-08-28T13:16:47.035Z,14.70
2022-08-28T13:18:52.140Z,15.57
2022-08-28T13:20:32.991Z,13.82
2022-08-28T13:22:32.106Z,15.25
2022-08-28T13:24:35.966Z,14.40
2022-08-28T13:26:10.789Z,8.90
2022-08-28T13:27:43.024Z,10.23
2022-08-28T13:29:24.592Z,12.75
2022-08-28T13:31:00.114Z,11.52
2022-08-28T13:32:38.552Z,9.73
2022-08-28T13:34:19.838Z,10.25
2022-08-28T13:35:54.925Z,12.23
2022-08-28T13:37:50.585Z,12.60
2022-08-28T13:39:23.855Z,10.20
2022-08-28T13:41:02.439Z,12.10
2022-08-28T13:42:34.909Z,15.30
2022-08-28T13:44:08.587Z,11.73
2022-08-28T13:45:45.419Z,10.02
2022-08-28T13:47:17.892Z,12.68
2022-08-28T13:48:50.220Z,15.93
2022-08-28T13:50:23.812Z,11.93
2022-08-28T13:51:59.647Z,13.50
2022-08-28T13:53:32.999Z,15.23
2022-08-28T13:55:06.019Z,16.35
2022-08-28T13:56:39.110Z,12.38
2022-08-28T13:58:12.799Z,12.13
2022-08-28T13:59:45.267Z,14.70
2022-08-28T14:01:30.558Z,13.25
2022-08-28T14:03:28.541Z,10.05
2022-08-28T14:05:01.296Z,15.98
2022-08-28T14:06:33.502Z,14.82
2022-08-28T14:08:06.028Z,11.35
2022-08-28T14:09:39.281Z,17.35
2022-08-28T14:11:15.112Z,13.75
2022-08-28T14:12:48.879Z,21.60
2022-08-28T14:14:22.268Z,10.63
2022-08-28T14:15:56.987Z,13.27
2022-08-28T14:17:29.823Z,12.75
2022-08-28T14:19:05.720Z,11.27
2022-08-28T14:20:39.127Z,10.63
2022-08-28T14:22:11.332Z,11.15
2022-08-28T14:23:43.712Z,11.68
2022-08-28T14:25:16.205Z,12.10
2022-08-28T14:26:48.732Z,10.18
2022-08-28T14:28:21.431Z,11.63
2022-08-28T14:29:53.879Z,10.68
2022-08-28T14:31:27.646Z,8.80
2022-08-28T14:33:00.384Z,8.95
2022-08-28T14:34:33.039Z,9.48
2022-08-28T14:36:05.715Z,8.23
2022-08-28T14:37:38.205Z,10.68
2022-08-28T14:39:13.595Z,9.63
2022-08-28T14:40:46.063Z,10.38
2022-08-28T14:42:19.416Z,8.23
2022-08-28T14:43:54.262Z,13.07
2022-08-28T14:45:26.502Z,9.90
2022-08-28T14:46:59.119Z,8.60
2022-08-28T14:48:32.483Z,11.57
2022-08-28T14:50:05.668Z,10.88
2022-08-28T14:51:41.478Z,13.98
2022-08-28T14:53:14.906Z,12.30
2022-08-28T14:54:47.483Z,12.05
2022-08-28T14:56:22.275Z,11.82
2022-08-28T14:57:54.419Z,12.13
2022-08-28T14:59:31.058Z,12.43
2022-08-28T15:01:05.250Z,18.60
2022-08-28T15:02:37.667Z,12.20
2022-08-28T15:04:14.612Z,9.80
2022-08-28T15:05:47.561Z,13.27
2022-08-28T15:07:21.271Z,10.68
2022-08-28T15:08:54.579Z,10.00
2022-08-28T15:10:26.848Z,10.07
2022-08-28T15:11:58.984Z,15.07
2022-08-28T15:13:31.840Z,9.65
2022-08-28T15:15:04.539Z,11.63
2022-08-28T15:16:42.664Z,12.13
2022-08-28T15:18:15.751Z,10.27
2022-08-28T15:19:48.292Z,12.35
2022-08-28T15:21:34.074Z,13.95
2022-08-28T15:23:06.395Z,11.57
2022-08-28T15:24:38.686Z,11.07
2022-08-28T15:26:15.268Z,13.93
2022-08-28T15:27:47.918Z,14.18
2022-08-28T15:29:20.549Z,16.35
2022-08-28T15:30:52.678Z,12.57
2022-08-28T15:32:26.381Z,17.23
2022-08-28T15:34:02.603Z,13.93
2022-08-28T15:35:35.575Z,13.57
2022-08-28T15:37:08.045Z,13.50
2022-08-28T15:38:59.142Z,14.85
2022-08-28T15:40:50.581Z,13.60
2022-08-28T15:42:23.239Z,15.70
2022-08-28T15:44:00.500Z,13.18
2022-08-28T15:45:38.243Z,13.27
2022-08-28T15:47:12.569Z,13.80
2022-08-28T15:48:48.156Z,14.87
2022-08-28T15:50:21.426Z,12.90
2022-08-28T15:51:54.243Z,15.43
2022-08-28T15:53:26.409Z,15.87
2022-08-28T15:54:58.892Z,12.70
2022-08-28T15:56:31.065Z,12.53
2022-08-28T15:58:04.293Z,14.53
2022-08-28T15:59:49.751Z,12.57
2022-08-28T16:01:23.916Z,18.85
2022-08-28T16:02:59.918Z,14.47
2022-08-28T16:04:32.119Z,13.27
2022-08-28T16:06:18.760Z,13.73
2022-08-28T16:07:51.115Z,13.43
2022-08-28T16:09:23.536Z,14.03
2022-08-28T16:10:56.638Z,12.87
2022-08-28T16:12:28.946Z,15.70
2022-08-28T16:14:04.550Z,13.30
2022-08-28T16:15:36.723Z,15.17
2022-08-28T16:17:10.662Z,16.93
2022-08-28T16:18:44.244Z,13.90
2022-08-28T16:20:16.695Z,15.97
2022-08-28T16:21:49.014Z,18.83
2022-08-28T16:23:21.387Z,13.63
2022-08-28T16:24:53.692Z,12.00
2022-08-28T16:26:28.489Z,15.00
2022-08-28T16:28:01.044Z,14.63
2022-08-28T16:29:33.275Z,14.43
2022-08-28T16:31:08.007Z,13.95
2022-08-28T16:32:52.214Z,12.57
2022-08-28T16:34:31.273Z,15.75
2022-08-28T16:36:11.506Z,12.00
2022-08-28T16:37:44.055Z,13.27
2022-08-28T16:39:16.938Z,12.17
2022-08-28T16:40:49.282Z,12.87
2022-08-28T16:42:23.179Z,13.57
2022-08-28T16:43:56.151Z,13.82
2022-08-28T16:45:29.835Z,12.95
2022-08-28T16:47:02.047Z,12.05
2022-08-28T16:48:34.263Z,14.85
2022-08-28T16:50:11.907Z,12.10
2022-08-28T16:51:44.698Z,11.77
2022-08-28T16:53:24.928Z,12.65
2022-08-28T16:55:00.002Z,12.20
2022-08-28T16:56:32.370Z,10.95
2022-08-28T16:58:05.604Z,11.25
2022-08-28T16:59:37.996Z,12.13
2022-08-28T17:01:13.599Z,13.98
2022-08-28T17:02:46.639Z,10.95
2022-08-28T17:04:20.316Z,12.10
2022-08-28T17:05:52.518Z,14.10
2022-08-28T17:07:24.691Z,17.58
2022-08-28T17:08:58.219Z,15.65
2022-08-28T17:10:31.565Z,16.92
2022-08-28T17:12:04.048Z,13.02
2022-08-28T17:13:37.896Z,14.88
2022-08-28T17:15:12.128Z,13.90
2022-08-28T17:16:44.689Z,14.23
2022-08-28T17:18:17.036Z,14.30
2022-08-28T17:19:49.459Z,15.83
2022-08-28T17:21:41.292Z,12.43
2022-08-28T17:23:13.713Z,14.33
2022-08-28T17:24:46.835Z,14.83
2022-08-28T17:26:21.154Z,13.77
2022-08-28T17:27:53.687Z,16.52
2022-08-28T17:29:26.244Z,16.25
2022-08-28T17:30:59.203Z,16.77
2022-08-28T17:32:31.974Z,18.13
2022-08-28T17:34:05.678Z,21.00
2022-08-28T17:35:40.779Z,18.97
2022-08-28T17:37:15.619Z,16.63
2022-08-28T17:38:48.051Z,14.38
2022-08-28T17:40:23.235Z,16.00
2022-08-28T17:41:56.696Z,18.60
2022-08-28T17:43:28.856Z,16.57
2022-08-28T17:45:01.003Z,14.63
2022-08-28T17:46:37.714Z,13.50
2022-08-28T17:48:10.859Z,19.07
2022-08-28T17:49:44.464Z,16.27
2022-08-28T17:51:16.895Z,21.38
2022-08-28T17:52:51.927Z,17.07
2022-08-28T17:54:25.742Z,15.07
2022-08-28T17:55:59.133Z,19.00
2022-08-28T17:57:31.683Z,20.95
2022-08-28T17:59:04.834Z,16.80
2022-08-28T18:00:39.811Z,18.40
2022-08-28T18:02:16.803Z,18.57
2022-08-28T18:03:52.917Z,17.43
2022-08-28T18:05:26.227Z,17.47
2022-08-28T18:06:59.100Z,19.17
2022-08-28T18:08:31.553Z,15.03
2022-08-28T18:10:06.912Z,16.43
2022-08-28T18:11:40.114Z,18.33
2022-08-28T18:13:13.157Z,17.37
2022-08-28T18:14:45.780Z,15.60
2022-08-28T18:16:18.761Z,15.63
2022-08-28T18:17:51.080Z,15.73
2022-08-28T18:19:24.083Z,16.27
2022-08-28T18:20:56.353Z,17.63
2022-08-28T18:22:29.911Z,16.80
2022-08-28T18:24:03.164Z,18.38
2022-08-28T18:25:43.393Z,18.10
2022-08-28T18:27:26.594Z,23.73
2022-08-28T18:28:59.401Z,17.17
2022-08-28T18:30:36.631Z,17.03
2022-08-28T18:32:24.088Z,18.80
2022-08-28T18:33:56.387Z,20.47
2022-08-28T18:35:31.981Z,15.75
2022-08-28T18:37:05.173Z,19.67
2022-08-28T18:38:37.806Z,17.37
2022-08-28T18:40:10.854Z,20.03
2022-08-28T18:41:45.270Z,19.30
2022-08-28T18:43:20.279Z,21.00
2022-08-28T18:44:52.424Z,18.73
2022-08-28T18:46:24.707Z,20.97
2022-08-28T18:48:02.675Z,19.50
2022-08-28T18:49:35.081Z,19.60
2022-08-28T18:51:11.766Z,21.67
2022-08-28T18:52:44.493Z,19.60
2022-08-28T18:54:19.568Z,21.67
2022-08-28T18:55:54.873Z,20.30
2022-08-28T18:57:27.137Z,20.47
2022-08-28T18:58:59.951Z,21.47
2022-08-28T19:00:32.836Z,21.03
2022-08-28T19:02:05.293Z,20.73
2022-08-28T19:03:40.759Z,21.13
2022-08-28T19:05:14.099Z,19.07
2022-08-28T19:06:46.432Z,21.63
2022-08-28T19:08:18.943Z,20.37
2022-08-28T19:09:51.237Z,21.87
2022-08-28T19:11:23.626Z,24.13
2022-08-28T19:12:56.116Z,21.43
2022-08-28T19:14:28.552Z,22.27
2022-08-28T19:16:00.781Z,23.63
2022-08-28T19:17:37.031Z,26.10
2022-08-28T19:19:09.574Z,25.47
2022-08-28T19:20:42.507Z,23.67
2022-08-28T19:22:15.567Z,23.00
2022-08-28T19:23:55.476Z,24.67
2022-08-28T19:25:30.666Z,28.07
2022-08-28T19:27:03.607Z,23.03
2022-08-28T19:28:37.035Z,24.23
2022-08-28T19:30:14.673Z,25.90
2022-08-28T19:31:46.919Z,21.83
2022-08-28T19:33:19.927Z,23.30
2022-08-28T19:34:52.823Z,26.10
2022-08-28T19:36:27.422Z,25.33
2022-08-28T19:37:59.883Z,21.97
2022-08-28T19:39:32.474Z,23.93
2022-08-28T19:41:11.226Z,25.63
2022-08-28T19:42:43.469Z,21.87
2022-08-28T19:44:15.643Z,26.40
2022-08-28T19:45:48.153Z,30.03
2022-08-28T19:47:20.395Z,25.70
2022-08-28T19:48:54.297Z,29.40
2022-08-28T19:50:27.174Z,28.83
2022-08-28T19:51:59.712Z,30.67
2022-08-28T19:53:32.120Z,26.70
2022-08-28T19:55:06.050Z,24.63
2022-08-28T19:56:38.388Z,25.80
2022-08-28T19:58:10.856Z,33.00
2022-08-28T19:59:43.623Z,34.10
2022-08-28T20:01:17.208Z,33.43
2022-08-28T20:02:52.396Z,30.90
2022-08-28T20:04:25.503Z,27.63
2022-08-28T20:05:58.030Z,23.50
2022-08-28T20:07:30.184Z,21.27
2022-08-28T20:09:04.173Z,23.17
2022-08-28T20:10:40.620Z,26.03
2022-08-28T20:12:14.637Z,29.27
2022-08-28T20:13:47.139Z,31.07
2022-08-28T20:15:20.669Z,33.90
2022-08-28T20:16:54.415Z,31.23
2022-08-28T20:18:26.545Z,31.27
2022-08-28T20:20:03.186Z,28.00
2022-08-28T20:21:39.063Z,28.00
2022-08-28T20:23:11.784Z,32.77
2022-08-28T20:24:44.526Z,30.17
2022-08-28T20:26:16.677Z,28.93
2022-08-28T20:27:48.971Z,28.83
2022-08-28T20:29:24.135Z,24.97
2022-08-28T20:30:56.498Z,25.70
2022-08-28T20:32:29.405Z,28.23
2022-08-28T20:34:01.745Z,28.10
2022-08-28T20:35:34.226Z,24.93
2022-08-28T20:37:06.636Z,30.43
2022-08-28T20:38:40.564Z,25.47
2022-08-28T20:40:19.355Z,29.53
2022-08-28T20:41:51.984Z,30.87
2022-08-28T20:43:24.144Z,30.00
2022-08-28T20:44:58.593Z,29.80
2022-08-28T20:46:35.035Z,23.97
2022-08-28T20:48:10.898Z,26.93
2022-08-28T20:49:43.039Z,24.20
2022-08-28T20:51:15.390Z,27.13
2022-08-28T20:52:47.566Z,21.27
2022-08-28T20:54:41.968Z,23.97
2022-08-28T20:56:14.170Z,24.77
2022-08-28T20:57:46.303Z,23.87
2022-08-28T20:59:20.132Z,25.87
2022-08-28T21:00:53.469Z,25.83